createdAt,value
2019-05-28T00:01:12.258Z,19.31
2019-05-28T00:03:41.958Z,19.26
2019-05-28T00:06:11.680Z,19.24
2019-05-28T00:08:41.968Z,19.15
2019-05-28T00:11:11.678Z,19.09
2019-05-28T00:13:41.360Z,19.00
2019-05-28T00:16:11.644Z,19.01
2019-05-28T00:18:41.411Z,19.03
2019-05-28T00:21:11.071Z,18.98
2019-05-28T00:23:40.802Z,19.00
2019-05-28T00:26:10.631Z,18.96
2019-05-28T00:28:40.393Z,18.98
2019-05-28T00:31:10.106Z,18.90
2019-05-28T00:33:39.834Z,18.83
2019-05-28T00:36:09.577Z,18.78
2019-05-28T00:38:39.438Z,18.81
2019-05-28T00:41:09.154Z,18.70
2019-05-28T00:43:39.467Z,18.69
2019-05-28T00:46:10.156Z,18.68
2019-05-28T00:48:39.868Z,18.68
2019-05-28T00:51:10.738Z,18.66
2019-05-28T00:53:40.598Z,18.60
2019-05-28T00:56:11.512Z,18.61
2019-05-28T00:58:41.832Z,18.59
2019-05-28T01:01:13.185Z,18.65
2019-05-28T01:03:43.159Z,18.61
2019-05-28T01:06:13.432Z,18.62
2019-05-28T01:08:43.216Z,18.60
2019-05-28T01:11:12.988Z,18.62
2019-05-28T01:13:43.343Z,18.63
2019-05-28T01:16:13.191Z,18.56
2019-05-28T01:18:42.886Z,18.57
2019-05-28T01:21:12.611Z,18.55
2019-05-28T01:23:42.381Z,18.56
2019-05-28T01:26:12.163Z,18.53
2019-05-28T01:28:41.834Z,18.51
2019-05-28T01:31:11.589Z,18.53
2019-05-28T01:33:41.312Z,18.56
2019-05-28T01:36:11.175Z,18.55
2019-05-28T01:38:41.585Z,18.57
2019-05-28T01:41:11.434Z,18.57
2019-05-28T01:43:41.709Z,18.56
2019-05-28T01:46:12.063Z,18.57
2019-05-28T01:48:41.759Z,18.61
2019-05-28T01:51:12.073Z,18.65
2019-05-28T01:53:41.783Z,18.61
2019-05-28T01:56:11.475Z,18.64
2019-05-28T01:58:41.180Z,18.66
2019-05-28T02:01:13.102Z,18.67
2019-05-28T02:03:42.373Z,18.62
2019-05-28T02:06:12.683Z,18.63
2019-05-28T02:08:42.404Z,18.66
2019-05-28T02:11:12.109Z,18.68
2019-05-28T02:13:41.817Z,18.67
2019-05-28T02:16:11.647Z,18.68
2019-05-28T02:18:44.290Z,18.68
2019-05-28T02:21:13.969Z,18.64
2019-05-28T02:23:43.740Z,18.58
2019-05-28T02:26:13.447Z,18.54
2019-05-28T02:28:43.156Z,18.45
2019-05-28T02:31:26.938Z,18.45
2019-05-28T02:33:44.317Z,18.41
2019-05-28T02:36:14.030Z,18.41
2019-05-28T02:38:43.739Z,18.38
2019-05-28T02:41:13.553Z,18.38
2019-05-28T02:43:43.343Z,18.40
2019-05-28T02:46:13.065Z,18.36
2019-05-28T02:48:44.357Z,18.37
2019-05-28T02:51:14.392Z,18.30
2019-05-28T02:53:44.250Z,18.36
2019-05-28T02:56:20.553Z,18.38
2019-05-28T02:58:51.932Z,18.36
2019-05-28T03:01:24.151Z,18.33
2019-05-28T03:03:57.328Z,18.34
2019-05-28T03:06:28.764Z,18.34
2019-05-28T03:08:58.499Z,18.37
2019-05-28T03:11:28.273Z,18.39
2019-05-28T03:13:58.046Z,18.34
2019-05-28T03:16:32.592Z,18.36
2019-05-28T03:19:04.042Z,18.36
2019-05-28T03:21:36.888Z,18.41
2019-05-28T03:24:08.004Z,18.46
2019-05-28T03:26:37.778Z,18.53
2019-05-28T03:29:23.812Z,18.56
2019-05-28T03:32:11.023Z,18.61
2019-05-28T03:34:27.692Z,18.61
2019-05-28T03:36:58.653Z,18.60
2019-05-28T03:39:30.455Z,18.61
2019-05-28T03:42:00.277Z,18.61
2019-05-28T03:44:30.019Z,18.63
2019-05-28T03:46:59.758Z,18.67
2019-05-28T03:49:29.997Z,18.68
2019-05-28T03:52:00.275Z,18.68
2019-05-28T03:54:30.018Z,18.69
2019-05-28T03:56:59.691Z,18.68
2019-05-28T03:59:31.587Z,18.70
2019-05-28T04:02:03.123Z,18.74
2019-05-28T04:04:32.867Z,18.72
2019-05-28T04:07:03.190Z,18.71
2019-05-28T04:09:33.945Z,18.73
2019-05-28T04:12:03.706Z,18.76
2019-05-28T04:14:34.036Z,18.77
2019-05-28T04:17:03.774Z,18.75
2019-05-28T04:19:33.481Z,18.73
2019-05-28T04:22:03.253Z,18.73
2019-05-28T04:24:32.978Z,18.74
2019-05-28T04:27:02.715Z,18.75
2019-05-28T04:29:32.429Z,18.75
2019-05-28T04:32:02.112Z,18.78
2019-05-28T04:34:32.437Z,18.79
2019-05-28T04:37:02.355Z,18.83
2019-05-28T04:39:35.267Z,18.87
2019-05-28T04:42:04.285Z,18.96
2019-05-28T04:44:35.509Z,18.99
2019-05-28T04:47:08.472Z,19.03
2019-05-28T04:49:37.210Z,19.09
2019-05-28T04:52:06.992Z,19.16
2019-05-28T04:54:36.694Z,19.19
2019-05-28T04:57:06.458Z,19.24
2019-05-28T04:59:36.121Z,19.33
2019-05-28T05:02:05.812Z,19.37
2019-05-28T05:04:35.693Z,19.48
2019-05-28T05:07:05.567Z,19.61
2019-05-28T05:09:35.893Z,19.70
2019-05-28T05:12:05.882Z,19.70
2019-05-28T05:14:36.215Z,19.72
2019-05-28T05:17:05.917Z,19.75
2019-05-28T05:19:36.245Z,19.70
2019-05-28T05:22:06.042Z,19.65
2019-05-28T05:24:39.034Z,19.58
2019-05-28T05:27:09.288Z,19.51
2019-05-28T05:29:39.333Z,19.43
2019-05-28T05:32:09.247Z,19.39
2019-05-28T05:34:39.526Z,19.38
2019-05-28T05:37:11.448Z,19.39
2019-05-28T05:39:43.022Z,19.38
2019-05-28T05:42:13.326Z,19.34
2019-05-28T05:44:43.563Z,19.37
2019-05-28T05:47:13.433Z,19.43
2019-05-28T05:49:43.631Z,19.55
2019-05-28T05:52:13.930Z,19.68
2019-05-28T05:54:44.234Z,19.71
2019-05-28T05:57:14.510Z,19.75
2019-05-28T05:59:44.759Z,19.87
2019-05-28T06:02:15.025Z,19.98
2019-05-28T06:04:45.344Z,20.07
2019-05-28T06:07:15.038Z,20.14
2019-05-28T06:09:46.788Z,20.22
2019-05-28T06:12:17.152Z,20.33
2019-05-28T06:14:47.431Z,20.46
2019-05-28T06:17:17.791Z,20.67
2019-05-28T06:19:48.043Z,20.93
2019-05-28T06:22:18.337Z,21.11
2019-05-28T06:24:48.578Z,21.28
2019-05-28T06:27:19.546Z,21.49
2019-05-28T06:29:49.980Z,21.64
2019-05-28T06:32:21.965Z,21.79
2019-05-28T06:34:52.217Z,21.93
2019-05-28T06:37:22.505Z,22.08
2019-05-28T06:39:52.901Z,22.19
2019-05-28T06:42:23.308Z,22.28
2019-05-28T06:44:53.662Z,22.32
2019-05-28T06:47:23.921Z,22.47
2019-05-28T06:49:54.553Z,22.69
2019-05-28T06:52:24.827Z,22.91
2019-05-28T06:54:55.266Z,23.14
2019-05-28T06:57:27.355Z,23.30
2019-05-28T06:59:57.607Z,23.51
2019-05-28T07:02:28.293Z,23.73
2019-05-28T07:04:58.536Z,23.91
2019-05-28T07:07:28.907Z,23.94
2019-05-28T07:09:59.248Z,23.99
2019-05-28T07:12:29.612Z,23.93
2019-05-28T07:15:00.109Z,23.97
2019-05-28T07:17:30.755Z,24.12
2019-05-28T07:20:01.099Z,24.16
2019-05-28T07:22:31.402Z,24.36
2019-05-28T07:25:01.677Z,24.43
2019-05-28T07:27:32.116Z,24.56
2019-05-28T07:30:05.566Z,24.74
2019-05-28T07:32:36.052Z,24.77
2019-05-28T07:35:07.920Z,24.79
2019-05-28T07:37:38.251Z,24.72
2019-05-28T07:40:09.288Z,24.58
2019-05-28T07:42:39.555Z,24.45
2019-05-28T07:45:10.296Z,24.36
2019-05-28T07:47:40.603Z,24.38
2019-05-28T07:50:12.398Z,24.48
2019-05-28T07:52:42.708Z,24.50
2019-05-28T07:55:13.755Z,24.56
2019-05-28T07:57:44.047Z,24.55
2019-05-28T08:00:16.038Z,24.53
2019-05-28T08:02:46.313Z,24.77
2019-05-28T08:05:17.429Z,25.03
2019-05-28T08:07:47.986Z,25.15
2019-05-28T08:10:18.960Z,25.35
2019-05-28T08:12:49.287Z,25.67
2019-05-28T08:15:19.638Z,25.95
2019-05-28T08:17:49.900Z,26.10
2019-05-28T08:20:20.231Z,26.19
2019-05-28T08:22:50.598Z,26.40
2019-05-28T08:25:40.646Z,26.49
2019-05-28T08:27:52.886Z,26.68
2019-05-28T08:30:23.309Z,27.08
2019-05-28T08:32:53.565Z,27.38
2019-05-28T08:35:23.897Z,27.47
2019-05-28T08:37:54.211Z,27.51
2019-05-28T08:40:25.860Z,27.57
2019-05-28T08:42:56.186Z,27.66
2019-05-28T08:45:26.438Z,27.63
2019-05-28T08:47:56.738Z,27.78
2019-05-28T08:50:34.443Z,28.06
2019-05-28T08:52:59.106Z,28.42
2019-05-28T08:55:29.579Z,28.84
2019-05-28T08:58:01.678Z,29.14
2019-05-28T09:00:45.669Z,29.29
2019-05-28T09:03:15.988Z,29.78
2019-05-28T09:05:46.397Z,30.21
2019-05-28T09:08:16.843Z,30.23
2019-05-28T09:10:47.155Z,30.37
2019-05-28T09:13:17.414Z,30.75
2019-05-28T09:15:47.734Z,31.03
2019-05-28T09:18:18.293Z,31.11
2019-05-28T09:20:48.558Z,31.46
2019-05-28T09:23:18.821Z,31.38
2019-05-28T09:25:49.148Z,31.50
2019-05-28T09:28:30.034Z,31.75
2019-05-28T09:30:51.448Z,32.22
2019-05-28T09:33:21.718Z,32.87
2019-05-28T09:36:07.328Z,33.31
2019-05-28T09:38:24.097Z,33.78
2019-05-28T09:40:54.364Z,34.01
2019-05-28T09:43:24.637Z,34.37
2019-05-28T09:45:54.889Z,34.54
2019-05-28T09:48:25.435Z,34.64
2019-05-28T09:50:55.731Z,34.79
2019-05-28T09:53:26.009Z,34.97
2019-05-28T09:55:56.263Z,35.08
2019-05-28T09:58:26.695Z,35.07
2019-05-28T10:00:58.953Z,34.92
2019-05-28T10:03:29.171Z,34.75
2019-05-28T10:06:15.549Z,35.04
2019-05-28T10:08:31.420Z,36.17
2019-05-28T10:11:01.814Z,36.73
2019-05-28T10:13:39.441Z,36.60
2019-05-28T10:16:04.434Z,36.10
2019-05-28T10:18:34.871Z,35.69
2019-05-28T10:21:17.831Z,35.33
2019-05-28T10:23:37.193Z,35.21
2019-05-28T10:26:07.455Z,35.04
2019-05-28T10:28:37.730Z,35.00
2019-05-28T10:31:08.055Z,34.46
2019-05-28T10:33:38.354Z,34.15
2019-05-28T10:36:08.762Z,34.35
2019-05-28T10:38:39.027Z,34.19
2019-05-28T10:41:09.299Z,33.72
2019-05-28T10:43:39.580Z,33.01
2019-05-28T10:46:09.955Z,32.75
2019-05-28T10:48:40.441Z,32.86
2019-05-28T10:51:10.774Z,32.60
2019-05-28T10:53:41.062Z,32.31
2019-05-28T10:56:11.369Z,31.75
2019-05-28T10:58:41.651Z,31.62
2019-05-28T11:01:11.874Z,31.65
2019-05-28T11:03:42.126Z,31.90
2019-05-28T11:06:12.420Z,31.99
2019-05-28T11:08:42.870Z,31.78
2019-05-28T11:11:13.172Z,31.21
2019-05-28T11:13:52.445Z,31.20
2019-05-28T11:16:15.420Z,30.92
2019-05-28T11:18:45.705Z,30.47
2019-05-28T11:21:17.516Z,30.26
2019-05-28T11:23:47.788Z,29.99
2019-05-28T11:26:18.216Z,29.81
2019-05-28T11:28:48.604Z,29.92
2019-05-28T11:31:18.920Z,30.03
2019-05-28T11:33:49.167Z,29.98
2019-05-28T11:36:19.473Z,30.03
2019-05-28T11:38:49.740Z,29.67
2019-05-28T11:41:20.027Z,29.25
2019-05-28T11:43:50.272Z,29.30
2019-05-28T11:46:20.540Z,29.50
2019-05-28T11:48:50.810Z,29.84
2019-05-28T11:51:21.136Z,30.27
2019-05-28T11:53:51.361Z,30.77
2019-05-28T11:56:21.681Z,31.32
2019-05-28T11:58:51.943Z,31.69
2019-05-28T12:01:33.898Z,32.02
2019-05-28T12:03:54.250Z,32.27
2019-05-28T12:06:24.597Z,32.57
2019-05-28T12:08:56.294Z,32.32
2019-05-28T12:11:26.596Z,32.26
2019-05-28T12:13:56.843Z,32.07
2019-05-28T12:16:27.124Z,32.18
2019-05-28T12:18:58.437Z,32.21
2019-05-28T12:21:28.954Z,32.21
2019-05-28T12:23:59.223Z,31.93
2019-05-28T12:26:29.530Z,31.96
2019-05-28T12:28:59.769Z,31.65
2019-05-28T12:31:30.129Z,31.32
2019-05-28T12:34:00.390Z,31.03
2019-05-28T12:36:30.849Z,30.91
2019-05-28T12:39:01.118Z,30.84
2019-05-28T12:41:31.392Z,31.42
2019-05-28T12:44:01.704Z,32.17
2019-05-28T12:46:31.981Z,33.29
2019-05-28T12:49:02.675Z,34.31
2019-05-28T12:51:32.955Z,34.53
2019-05-28T12:54:03.250Z,34.40
2019-05-28T12:56:33.585Z,33.88
2019-05-28T12:59:04.115Z,33.96
2019-05-28T13:01:34.369Z,33.78
2019-05-28T13:04:05.341Z,33.57
2019-05-28T13:06:35.605Z,33.31
2019-05-28T13:09:09.048Z,32.62
2019-05-28T13:11:39.356Z,31.88
2019-05-28T13:14:09.640Z,31.15
2019-05-28T13:16:39.955Z,30.33
2019-05-28T13:19:10.257Z,29.88
2019-05-28T13:21:40.548Z,29.56
2019-05-28T13:24:10.825Z,29.30
2019-05-28T13:26:41.110Z,29.05
2019-05-28T13:29:29.465Z,28.70
2019-05-28T13:31:59.768Z,28.31
2019-05-28T13:34:30.024Z,27.90
2019-05-28T13:37:00.311Z,27.76
2019-05-28T13:39:30.566Z,27.67
2019-05-28T13:42:01.818Z,27.64
2019-05-28T13:44:32.082Z,27.65
2019-05-28T13:47:02.361Z,27.61
2019-05-28T13:49:32.613Z,27.65
2019-05-28T13:52:12.001Z,27.75
2019-05-28T13:54:34.901Z,27.82
2019-05-28T13:57:06.487Z,28.03
2019-05-28T13:59:36.573Z,28.24
2019-05-28T14:02:06.862Z,28.45
2019-05-28T14:04:37.119Z,28.51
2019-05-28T14:07:07.428Z,28.61
2019-05-28T14:09:37.735Z,28.54
2019-05-28T14:12:08.079Z,28.52
2019-05-28T14:14:38.380Z,28.51
2019-05-28T14:17:08.884Z,28.54
2019-05-28T14:19:39.328Z,28.39
2019-05-28T14:22:09.650Z,28.43
2019-05-28T14:24:40.026Z,28.52
2019-05-28T14:27:13.421Z,28.76
2019-05-28T14:29:45.252Z,29.29
2019-05-28T14:32:15.532Z,29.97
2019-05-28T14:34:52.275Z,30.71
2019-05-28T14:37:20.700Z,31.11
2019-05-28T14:39:50.975Z,31.49
2019-05-28T14:42:21.278Z,31.40
2019-05-28T14:44:51.577Z,31.27
2019-05-28T14:47:21.838Z,31.43
2019-05-28T14:49:52.119Z,31.51
2019-05-28T14:52:22.383Z,31.76
2019-05-28T14:54:52.655Z,32.05
2019-05-28T14:57:22.927Z,32.01
2019-05-28T14:59:53.239Z,31.64
2019-05-28T15:02:23.547Z,31.19
2019-05-28T15:04:53.854Z,30.77
2019-05-28T15:07:24.179Z,30.45
2019-05-28T15:09:54.442Z,30.06
2019-05-28T15:12:24.727Z,29.64
2019-05-28T15:14:55.006Z,29.44
2019-05-28T15:17:26.672Z,29.34
2019-05-28T15:19:57.335Z,29.36
2019-05-28T15:22:27.608Z,29.44
2019-05-28T15:24:57.897Z,29.36
2019-05-28T15:27:28.164Z,29.00
2019-05-28T15:29:58.537Z,28.64
2019-05-28T15:32:28.886Z,28.47
2019-05-28T15:34:59.136Z,28.50
2019-05-28T15:37:29.391Z,28.49
2019-05-28T15:39:59.675Z,28.32
2019-05-28T15:42:29.957Z,28.20
2019-05-28T15:45:00.239Z,28.05
2019-05-28T15:47:30.662Z,27.91
2019-05-28T15:50:00.926Z,27.87
2019-05-28T15:52:31.215Z,27.75
2019-05-28T15:55:01.694Z,27.66
2019-05-28T15:57:31.955Z,27.43
2019-05-28T16:00:02.223Z,27.25
2019-05-28T16:02:32.484Z,27.20
2019-05-28T16:05:02.895Z,27.06
2019-05-28T16:07:33.151Z,26.88
2019-05-28T16:10:05.061Z,26.76
2019-05-28T16:12:35.608Z,26.75
2019-05-28T16:15:11.822Z,26.68
2019-05-28T16:17:42.182Z,26.65
2019-05-28T16:20:13.260Z,26.65
2019-05-28T16:22:43.668Z,26.53
2019-05-28T16:25:15.005Z,26.40
2019-05-28T16:27:45.286Z,26.30
2019-05-28T16:30:16.412Z,26.14
2019-05-28T16:32:46.721Z,25.95
2019-05-28T16:35:20.274Z,25.77
2019-05-28T16:37:50.633Z,25.59
2019-05-28T16:40:21.167Z,25.40
2019-05-28T16:42:51.432Z,25.25
2019-05-28T16:45:22.112Z,25.08
2019-05-28T16:47:52.390Z,24.87
2019-05-28T16:50:22.930Z,24.69
2019-05-28T16:52:53.249Z,24.53
2019-05-28T16:55:23.505Z,24.34
2019-05-28T16:57:53.951Z,24.17
2019-05-28T17:00:24.768Z,24.08
2019-05-28T17:02:55.054Z,23.98
2019-05-28T17:05:25.353Z,23.91
2019-05-28T17:07:55.631Z,23.77
2019-05-28T17:10:33.164Z,23.60
2019-05-28T17:12:58.147Z,23.47
2019-05-28T17:15:28.508Z,23.40
2019-05-28T17:18:01.809Z,23.32
2019-05-28T17:20:32.046Z,23.27
2019-05-28T17:23:02.333Z,23.25
2019-05-28T17:25:34.267Z,23.25
2019-05-28T17:28:08.817Z,23.21
2019-05-28T17:30:39.122Z,23.16
2019-05-28T17:33:09.549Z,23.03
2019-05-28T17:35:39.933Z,22.95
2019-05-28T17:38:10.421Z,22.91
2019-05-28T17:40:48.386Z,22.91
2019-05-28T17:43:12.927Z,22.87
2019-05-28T17:45:43.186Z,22.82
2019-05-28T17:48:14.494Z,22.69
2019-05-28T17:50:44.819Z,22.59
2019-05-28T17:53:15.728Z,22.50
2019-05-28T17:55:45.985Z,22.44
2019-05-28T17:58:16.296Z,22.38
2019-05-28T18:00:46.607Z,22.31
2019-05-28T18:03:18.707Z,22.13
2019-05-28T18:05:50.514Z,21.83
2019-05-28T18:08:20.751Z,21.60
2019-05-28T18:11:03.760Z,21.43
2019-05-28T18:13:23.032Z,21.27
2019-05-28T18:15:53.411Z,21.18
2019-05-28T18:18:23.688Z,21.04
2019-05-28T18:20:53.963Z,20.88
2019-05-28T18:23:24.235Z,20.74
2019-05-28T18:25:54.664Z,20.58
2019-05-28T18:28:27.476Z,20.44
2019-05-28T18:30:57.804Z,20.32
2019-05-28T18:33:28.086Z,20.16
2019-05-28T18:35:58.319Z,20.02
2019-05-28T18:38:28.599Z,19.93
2019-05-28T18:40:58.886Z,19.82
2019-05-28T18:43:29.339Z,19.71
2019-05-28T18:45:59.599Z,19.60
2019-05-28T18:48:29.332Z,19.46
2019-05-28T18:51:04.886Z,19.37
2019-05-28T18:53:34.567Z,19.30
2019-05-28T18:56:17.127Z,19.25
2019-05-28T18:58:36.291Z,19.18
2019-05-28T19:01:06.062Z,19.13
2019-05-28T19:03:37.989Z,18.99
2019-05-28T19:06:07.778Z,18.90
2019-05-28T19:08:37.733Z,18.88
2019-05-28T19:11:07.407Z,18.90
2019-05-28T19:13:37.099Z,18.81
2019-05-28T19:16:06.811Z,18.73
2019-05-28T19:18:36.576Z,18.65
2019-05-28T19:21:06.421Z,18.61
2019-05-28T19:23:36.462Z,18.54
2019-05-28T19:26:06.176Z,18.41
2019-05-28T19:28:35.875Z,18.35
2019-05-28T19:31:05.623Z,18.36
2019-05-28T19:33:35.448Z,18.29
2019-05-28T19:36:06.245Z,18.26
2019-05-28T19:38:45.538Z,18.23
2019-05-28T19:41:09.152Z,18.22
2019-05-28T19:43:38.855Z,18.22
2019-05-28T19:46:08.558Z,18.15
2019-05-28T19:48:38.304Z,18.12
2019-05-28T19:51:08.002Z,18.13
2019-05-28T19:53:37.744Z,18.11
2019-05-28T19:56:07.441Z,18.15
2019-05-28T19:58:37.185Z,18.17
2019-05-28T20:01:07.013Z,18.15
2019-05-28T20:03:36.713Z,18.14
2019-05-28T20:06:06.388Z,18.07
2019-05-28T20:08:36.101Z,18.03
2019-05-28T20:11:06.253Z,17.99
2019-05-28T20:13:35.966Z,17.94
2019-05-28T20:16:05.638Z,17.94
2019-05-28T20:18:35.336Z,17.99
2019-05-28T20:21:05.595Z,18.03
2019-05-28T20:23:35.310Z,17.98
2019-05-28T20:26:05.096Z,17.96
2019-05-28T20:28:34.805Z,17.96
2019-05-28T20:31:04.585Z,18.04
2019-05-28T20:33:34.567Z,18.02
2019-05-28T20:36:05.791Z,17.96
2019-05-28T20:38:35.701Z,18.00
2019-05-28T20:41:06.158Z,17.93
2019-05-28T20:43:35.949Z,17.91
2019-05-28T20:46:06.596Z,17.89
2019-05-28T20:48:36.510Z,17.90
2019-05-28T20:51:17.745Z,17.90
2019-05-28T20:53:38.664Z,17.88
2019-05-28T20:56:08.364Z,17.88
2019-05-28T20:58:40.504Z,17.82
2019-05-28T21:01:09.506Z,17.83
2019-05-28T21:03:39.201Z,17.85
2019-05-28T21:06:08.925Z,17.81
2019-05-28T21:08:38.623Z,17.76
2019-05-28T21:11:08.422Z,17.76
2019-05-28T21:13:38.105Z,17.81
2019-05-28T21:16:07.856Z,17.80
2019-05-28T21:18:37.608Z,17.79
2019-05-28T21:21:07.430Z,17.80
2019-05-28T21:23:37.118Z,17.79
2019-05-28T21:26:06.870Z,17.79
2019-05-28T21:28:36.514Z,17.74
2019-05-28T21:31:06.247Z,17.76
2019-05-28T21:33:37.521Z,17.70
2019-05-28T21:36:14.625Z,17.65
2019-05-28T21:38:44.597Z,17.67
2019-05-28T21:41:14.617Z,17.69
2019-05-28T21:43:44.319Z,17.63
2019-05-28T21:46:14.078Z,17.63
2019-05-28T21:48:44.132Z,17.58
2019-05-28T21:51:13.879Z,17.58
2019-05-28T21:53:43.775Z,17.60
2019-05-28T21:56:13.559Z,17.58
2019-05-28T21:58:43.846Z,17.56
2019-05-28T22:01:24.034Z,17.55
2019-05-28T22:03:53.797Z,17.52
2019-05-28T22:06:23.553Z,17.50
2019-05-28T22:08:53.247Z,17.47
2019-05-28T22:11:23.031Z,17.48
2019-05-28T22:13:53.770Z,17.45
2019-05-28T22:16:23.523Z,17.43
2019-05-28T22:18:53.382Z,17.42
2019-05-28T22:21:25.433Z,17.39
2019-05-28T22:23:56.262Z,17.41
2019-05-28T22:26:29.074Z,17.40
2019-05-28T22:28:59.443Z,17.36
2019-05-28T22:31:29.253Z,17.36
2019-05-28T22:34:01.019Z,17.35
2019-05-28T22:36:30.830Z,17.38
2019-05-28T22:39:09.028Z,17.36
2019-05-28T22:41:41.626Z,17.35
2019-05-28T22:44:11.922Z,17.35
2019-05-28T22:46:41.818Z,17.38
2019-05-28T22:49:11.520Z,17.35
2019-05-28T22:51:41.281Z,17.32
2019-05-28T22:54:10.977Z,17.34
2019-05-28T22:56:40.720Z,17.28
2019-05-28T22:59:10.551Z,17.28
2019-05-28T23:01:41.735Z,17.30
2019-05-28T23:04:17.691Z,17.33
2019-05-28T23:06:47.425Z,17.33
2019-05-28T23:09:17.142Z,17.25
2019-05-28T23:11:46.831Z,17.31
2019-05-28T23:14:16.563Z,17.34
2019-05-28T23:16:46.337Z,17.30
2019-05-28T23:19:16.038Z,17.32
2019-05-28T23:21:45.777Z,17.32
2019-05-28T23:24:15.503Z,17.33
2019-05-28T23:26:45.212Z,17.38
2019-05-28T23:29:14.922Z,17.38
2019-05-28T23:31:44.598Z,17.33
2019-05-28T23:34:14.305Z,17.30
2019-05-28T23:36:44.083Z,17.28
2019-05-28T23:39:13.814Z,17.33
2019-05-28T23:41:43.528Z,17.26
2019-05-28T23:44:13.875Z,17.22
2019-05-28T23:46:43.693Z,17.26
2019-05-28T23:49:14.511Z,17.22
2019-05-28T23:51:44.350Z,17.20
2019-05-28T23:54:14.123Z,17.18
2019-05-28T23:56:43.849Z,17.14
2019-05-28T23:59:13.943Z,17.14
